Bass Harbor, Maine
Current Conditions -  °F | °C
As of 7:35 PM on Monday 24 Nov 2014 (Local Time) from KBHB Reporting Station
Overcast Overcast  
Wind Chill: 55°   Ceiling: 200
Heat Index: 55°   Visibility: 3mi
Dew Point: 55°   Wind: 21mph
Humidity: 100%   Direction: 200°SSW
Pressure: 29.6"   Gusts: 29mph
Location:  44.24°N, 68.34°W
Report Text: KBHB 250035Z AUTO 20018G25KT 3SM OVC002 13/13 A2960 RMK AO1
Loading
Personal Weather Stations






























Interactive Weather Map New forecast layout! Learn more

10-Day Weather Forecast

Advertisements
Track Severe Weather on mobile